Gridleyville, New York
Current Conditions -  °F | °C
As of 8:56 AM on Thursday 29 Jan 2015 (Local Time) from KITH Reporting Station
Few Clouds Few Clouds  
Wind Chill:   Ceiling: Unl
Heat Index: 15°   Visibility: 10mi
Dew Point:   Wind: 7mph
Humidity: 74%   Direction: 140°SE
Pressure: 30.15"   Gusts: NA
Location:  42.294°N, 76.4012°W
Report Text: KITH 291356Z 14006KT 10SM FEW100 M09/M13 A3015 RMK AO2 T10941133 SLP236
Loading
Personal Weather Stations






























Interactive Weather Map New forecast layout! Learn more

10-Day Weather Forecast

Advertisements
Track Severe Weather on mobile